Time;durP1;ratioP1;P1;durP2;ratioP2;P2;SDS_P1;SDS_P2;PMS_P1;PMS_P2;Temp;Humidity;BMP_temperature;BMP_pressure;BME280_temperature;BME280_humidity;BME280_pressure;Samples;Min_cycle;Max_cycle;Signal;HPM_P1;HPM_P2
2022/06/10 00:00:51;;;;;;;5.90;3.40;;;15.70;71.80;;;;;;4874259;29;20568;-74
2022/06/10 00:03:23;;;;;;;7.50;3.40;;;15.70;71.80;;;;;;4868095;29;20494;-73
2022/06/10 00:05:53;;;;;;;7.60;3.77;;;15.60;71.90;;;;;;4871856;29;20476;-73
2022/06/10 00:08:23;;;;;;;9.70;3.40;;;15.60;72.00;;;;;;4865952;29;20493;-73
2022/06/10 00:10:53;;;;;;;5.73;3.30;;;15.60;72.10;;;;;;4877545;29;20972;-73
2022/06/10 00:13:26;;;;;;;7.37;4.10;;;15.60;72.10;;;;;;4877492;29;20519;-73
2022/06/10 00:15:55;;;;;;;5.03;3.20;;;15.60;72.00;;;;;;4877211;29;20488;-74
2022/06/10 00:18:25;;;;;;;6.17;3.70;;;15.60;72.10;;;;;;4874305;29;20498;-72
2022/06/10 00:20:53;;;;;;;8.47;3.93;;;15.60;72.10;;;;;;4878460;29;20471;-73
2022/06/10 00:23:21;;;;;;;6.33;3.70;;;15.50;72.10;;;;;;4875131;29;20622;-74
2022/06/10 00:25:49;;;;;;;5.93;3.77;;;15.50;72.00;;;;;;4858303;29;21274;-74
2022/06/10 00:28:19;;;;;;;7.37;3.50;;;15.40;72.10;;;;;;4874525;29;20487;-74
2022/06/10 00:30:49;;;;;;;8.70;3.70;;;15.40;72.10;;;;;;4882779;29;20506;-73
2022/06/10 00:33:18;;;;;;;8.93;3.40;;;15.40;72.20;;;;;;4883749;29;21008;-74
2022/06/10 00:35:46;;;;;;;6.43;3.67;;;15.40;72.20;;;;;;4888874;29;20466;-75
2022/06/10 00:38:14;;;;;;;5.60;3.40;;;15.40;72.20;;;;;;4883420;29;20497;-74
2022/06/10 00:40:44;;;;;;;5.60;3.40;;;15.40;72.20;;;;;;4880743;29;20976;-73
2022/06/10 00:43:14;;;;;;;5.87;3.10;;;15.40;72.20;;;;;;4878980;29;20494;-74
2022/06/10 00:46:06;;;;;;;9.50;3.50;;;15.40;72.10;;;;;;4876698;29;20464;-75
2022/06/10 00:48:39;;;;;;;5.77;3.57;;;15.30;72.00;;;;;;4874726;29;20936;-74
2022/06/10 00:51:17;;;;;;;7.57;3.17;;;15.30;72.00;;;;;;4884736;29;20827;-75
2022/06/10 00:53:47;;;;;;;6.60;3.20;;;15.30;71.90;;;;;;4884145;29;20526;-74
2022/06/10 00:56:22;;;;;;;5.60;3.03;;;15.20;71.90;;;;;;4879102;29;20503;-74
2022/06/10 00:58:54;;;;;;;7.33;3.40;;;15.20;71.90;;;;;;4878752;29;20478;-75
2022/06/10 01:01:26;;;;;;;10.53;3.80;;;15.20;71.90;;;;;;4876362;29;20502;-73
2022/06/10 01:03:55;;;;;;;6.73;3.17;;;15.20;71.90;;;;;;4876344;29;20490;-74
2022/06/10 01:06:24;;;;;;;6.70;2.90;;;15.20;71.90;;;;;;4875862;29;20825;-74
2022/06/10 01:08:53;;;;;;;8.13;3.63;;;15.20;71.90;;;;;;4882455;29;20563;-75
2022/06/10 01:11:46;;;;;;;7.53;3.90;;;15.10;71.90;;;;;;4875345;29;20467;-74
2022/06/10 01:14:29;;;;;;;7.10;3.13;;;15.10;71.90;;;;;;4874553;29;20528;-73
2022/06/10 01:17:10;;;;;;;5.60;3.43;;;15.10;71.90;;;;;;4875339;29;20497;-74
2022/06/10 01:20:00;;;;;;;6.73;3.30;;;15.10;71.90;;;;;;4869036;29;20565;-73
2022/06/10 01:22:56;;;;;;;6.33;3.20;;;15.00;71.90;;;;;;4872949;29;20458;-75
2022/06/10 01:25:50;;;;;;;6.63;3.10;;;15.00;71.90;;;;;;4866297;29;20506;-73
2022/06/10 01:28:25;;;;;;;6.47;2.80;;;15.00;71.80;;;;;;4878124;29;20482;-74
2022/06/10 01:31:05;;;;;;;5.93;3.60;;;15.00;71.80;;;;;;4882900;29;20477;-73
2022/06/10 01:33:51;;;;;;;5.30;3.30;;;15.00;71.80;;;;;;4877734;29;20476;-72
2022/06/10 01:36:25;;;;;;;5.50;3.50;;;14.90;71.70;;;;;;4856033;29;20837;-73
2022/06/10 01:39:02;;;;;;;5.80;3.80;;;14.90;71.80;;;;;;4879900;29;21089;-74
2022/06/10 01:41:38;;;;;;;7.87;3.40;;;14.80;71.70;;;;;;4871183;29;20475;-74
2022/06/10 01:44:15;;;;;;;7.93;3.73;;;14.80;71.70;;;;;;4869187;29;20506;-74
2022/06/10 01:46:49;;;;;;;13.57;3.80;;;14.80;71.70;;;;;;4874730;29;20617;-75
2022/06/10 01:49:24;;;;;;;10.07;4.63;;;14.70;71.80;;;;;;4879173;29;20474;-74
2022/06/10 01:51:59;;;;;;;6.27;3.67;;;14.70;71.90;;;;;;4884100;29;20526;-75
2022/06/10 01:54:34;;;;;;;6.33;3.57;;;14.70;71.80;;;;;;4883605;29;20470;-73
2022/06/10 01:57:06;;;;;;;6.63;3.53;;;14.60;71.80;;;;;;4866890;29;20457;-73
2022/06/10 01:59:39;;;;;;;7.27;3.50;;;14.60;71.80;;;;;;4881657;29;20490;-73
2022/06/10 02:02:12;;;;;;;6.53;3.53;;;14.50;71.70;;;;;;4872643;29;21263;-72
2022/06/10 02:04:46;;;;;;;7.17;3.40;;;14.50;71.80;;;;;;4870438;29;20487;-74
2022/06/10 02:07:18;;;;;;;6.50;3.80;;;14.40;71.90;;;;;;4862355;29;21019;-74
2022/06/10 02:09:51;;;;;;;7.77;3.60;;;14.40;71.90;;;;;;4877004;29;20495;-72
2022/06/10 02:12:24;;;;;;;9.87;3.63;;;14.40;72.00;;;;;;4859316;29;20542;-75
2022/06/10 02:14:56;;;;;;;8.70;4.20;;;14.40;72.00;;;;;;4870418;29;20472;-75
2022/06/10 02:17:29;;;;;;;8.43;3.40;;;14.40;71.90;;;;;;4856238;29;20522;-74
2022/06/10 02:20:01;;;;;;;6.53;3.30;;;14.40;71.90;;;;;;4883368;29;20466;-73
2022/06/10 02:22:35;;;;;;;7.80;3.30;;;14.30;71.80;;;;;;4871893;29;20463;-75
2022/06/10 02:25:08;;;;;;;7.50;3.97;;;14.30;71.80;;;;;;4875935;29;20490;-72
2022/06/10 02:27:41;;;;;;;9.50;3.30;;;14.30;71.70;;;;;;4878170;29;20464;-73
2022/06/10 02:30:13;;;;;;;8.60;3.90;;;14.20;71.70;;;;;;4875822;29;20482;-74
2022/06/10 02:32:43;;;;;;;7.37;4.20;;;14.20;71.70;;;;;;4881365;29;20459;-74
2022/06/10 02:35:13;;;;;;;7.30;3.47;;;14.20;71.70;;;;;;4877065;29;20981;-75
2022/06/10 02:37:47;;;;;;;6.87;3.33;;;14.20;71.80;;;;;;4869778;29;20563;-74
2022/06/10 02:40:22;;;;;;;8.20;3.20;;;14.20;71.80;;;;;;4862454;29;20475;-73
2022/06/10 02:42:58;;;;;;;7.83;4.00;;;14.20;71.80;;;;;;4876708;29;20470;-73
2022/06/10 02:45:32;;;;;;;5.63;3.40;;;14.20;71.80;;;;;;4876911;29;20487;-74
2022/06/10 02:48:10;;;;;;;9.93;3.30;;;14.10;71.80;;;;;;4875627;29;20864;-73
2022/06/10 02:50:39;;;;;;;7.13;3.77;;;14.10;71.80;;;;;;4877749;29;20497;-73
2022/06/10 02:53:09;;;;;;;6.43;3.43;;;14.10;71.90;;;;;;4878366;29;20554;-73
2022/06/10 02:55:38;;;;;;;6.20;3.50;;;14.10;71.90;;;;;;4878308;29;20455;-73
2022/06/10 03:01:16;;;;;;;6.47;3.80;;;14.10;71.90;;;;;;4874706;29;20478;-73
2022/06/10 03:04:09;;;;;;;7.20;4.40;;;14.10;71.90;;;;;;4875820;29;21019;-74
2022/06/10 03:06:59;;;;;;;8.77;4.00;;;14.10;71.80;;;;;;4881055;29;21000;-72
2022/06/10 03:09:39;;;;;;;8.60;4.13;;;14.00;71.80;;;;;;4861217;29;20507;-73
2022/06/10 03:12:16;;;;;;;9.20;4.50;;;14.00;71.90;;;;;;4880530;29;20458;-73
2022/06/10 03:14:52;;;;;;;6.10;3.90;;;13.90;71.90;;;;;;4878802;29;21032;-73
2022/06/10 03:17:30;;;;;;;8.47;5.00;;;14.00;71.90;;;;;;4871667;29;20486;-74
2022/06/10 03:20:08;;;;;;;11.13;5.40;;;14.00;72.00;;;;;;4875464;29;20494;-74
2022/06/10 03:22:52;;;;;;;8.43;3.63;;;14.00;71.90;;;;;;4877576;29;20474;-74
2022/06/10 03:25:23;;;;;;;7.60;3.80;;;13.90;71.90;;;;;;4880367;29;20502;-73
2022/06/10 03:28:01;;;;;;;5.63;3.10;;;13.90;71.80;;;;;;4876083;29;21024;-74
2022/06/10 03:30:34;;;;;;;6.60;3.30;;;13.90;71.90;;;;;;4873393;29;20463;-73
2022/06/10 03:33:11;;;;;;;6.90;4.00;;;13.90;71.90;;;;;;4873037;29;20477;-74
2022/06/10 03:35:45;;;;;;;8.80;4.33;;;13.90;71.90;;;;;;4877114;29;20993;-73
2022/06/10 03:38:14;;;;;;;6.80;3.73;;;13.90;71.80;;;;;;4860630;29;20491;-73
2022/06/10 03:40:44;;;;;;;10.33;4.70;;;13.90;71.80;;;;;;4850166;29;20490;-73
2022/06/10 03:43:14;;;;;;;8.37;4.30;;;13.80;71.80;;;;;;4876092;29;20470;-73
2022/06/10 03:45:46;;;;;;;8.73;4.20;;;13.80;71.80;;;;;;4880414;29;20479;-73
2022/06/10 03:48:17;;;;;;;9.83;4.10;;;13.80;71.80;;;;;;4879417;29;20499;-73
2022/06/10 03:50:48;;;;;;;7.77;4.20;;;13.80;71.90;;;;;;4877527;29;20475;-73
2022/06/10 03:53:19;;;;;;;8.50;4.73;;;13.80;72.00;;;;;;4875735;29;20485;-73
2022/06/10 03:55:47;;;;;;;8.40;4.43;;;13.80;72.00;;;;;;4876734;29;20478;-73
2022/06/10 03:58:16;;;;;;;8.70;4.37;;;13.90;72.00;;;;;;4877712;29;20636;-74
2022/06/10 04:00:44;;;;;;;9.53;4.13;;;13.90;72.10;;;;;;4879930;29;20485;-73
2022/06/10 04:03:12;;;;;;;6.63;4.53;;;13.90;72.10;;;;;;4882677;29;20480;-74
2022/06/10 04:05:41;;;;;;;8.17;4.80;;;14.00;72.10;;;;;;4879601;29;20522;-74
2022/06/10 04:08:30;;;;;;;8.00;4.60;;;14.00;72.10;;;;;;4878998;29;20541;-73
2022/06/10 04:10:58;;;;;;;7.30;4.20;;;14.10;72.20;;;;;;4880035;29;20470;-73
2022/06/10 04:13:26;;;;;;;11.90;5.30;;;14.10;72.30;;;;;;4878576;29;20470;-72
2022/06/10 04:15:54;;;;;;;9.63;4.73;;;14.20;72.30;;;;;;4872442;29;20504;-73
2022/06/10 04:18:22;;;;;;;7.13;4.90;;;14.30;72.30;;;;;;4877809;29;20490;-73
2022/06/10 04:20:50;;;;;;;9.20;4.50;;;14.30;72.30;;;;;;4882245;29;20825;-74
2022/06/10 04:23:18;;;;;;;9.00;5.00;;;14.40;72.30;;;;;;4873139;29;20484;-73
2022/06/10 04:25:47;;;;;;;9.50;4.90;;;14.50;72.30;;;;;;4883433;29;20515;-73
2022/06/10 04:28:15;;;;;;;6.73;4.20;;;14.60;72.40;;;;;;4883374;29;20491;-74
2022/06/10 04:30:46;;;;;;;9.63;5.20;;;14.70;72.40;;;;;;4880012;29;20490;-74
2022/06/10 04:33:14;;;;;;;13.63;5.27;;;14.80;72.50;;;;;;4856518;29;20528;-74
2022/06/10 04:35:44;;;;;;;8.80;4.40;;;14.90;72.50;;;;;;4874951;29;20467;-73
2022/06/10 04:38:14;;;;;;;10.90;5.00;;;15.00;72.40;;;;;;4874485;29;20498;-74
2022/06/10 04:40:42;;;;;;;13.30;3.90;;;15.10;72.60;;;;;;4873440;29;20482;-74
2022/06/10 04:43:12;;;;;;;7.90;4.33;;;15.30;72.60;;;;;;4873324;29;20706;-74
2022/06/10 04:45:43;;;;;;;11.17;4.47;;;15.40;72.60;;;;;;4872747;29;20495;-74
2022/06/10 04:48:12;;;;;;;8.03;4.53;;;15.60;72.50;;;;;;4879421;29;20582;-74
2022/06/10 04:50:41;;;;;;;10.77;4.93;;;15.70;72.50;;;;;;4877212;29;20494;-73
2022/06/10 04:53:09;;;;;;;12.43;4.67;;;15.80;72.50;;;;;;4870472;29;20479;-73
2022/06/10 04:55:37;;;;;;;8.90;5.57;;;16.00;72.50;;;;;;4874188;29;20494;-73
2022/06/10 04:58:06;;;;;;;9.50;5.03;;;16.10;72.50;;;;;;4870481;29;20501;-73
2022/06/10 05:00:39;;;;;;;9.37;5.47;;;16.20;72.50;;;;;;4881563;29;20829;-73
2022/06/10 05:03:09;;;;;;;9.60;5.00;;;16.30;72.40;;;;;;4864512;29;20494;-74
2022/06/10 05:05:38;;;;;;;7.27;4.60;;;16.50;72.30;;;;;;4865716;29;20569;-73
2022/06/10 05:08:08;;;;;;;6.50;4.53;;;16.60;72.40;;;;;;4882192;29;20480;-72
2022/06/10 05:10:37;;;;;;;8.03;5.50;;;16.70;72.40;;;;;;4874539;29;21034;-75
2022/06/10 05:13:05;;;;;;;11.20;6.20;;;16.90;72.40;;;;;;4878100;29;21017;-74
2022/06/10 05:15:33;;;;;;;9.47;4.40;;;17.10;72.40;;;;;;4876745;29;20466;-75
2022/06/10 05:18:02;;;;;;;9.87;5.10;;;17.20;72.40;;;;;;4873601;29;20508;-75
2022/06/10 05:20:35;;;;;;;7.10;4.53;;;17.40;72.40;;;;;;4873391;29;20456;-74
2022/06/10 05:23:04;;;;;;;13.80;5.50;;;17.60;72.30;;;;;;4878030;29;20502;-74
2022/06/10 05:25:32;;;;;;;7.77;5.30;;;17.70;72.20;;;;;;4871713;29;20490;-74
2022/06/10 05:28:01;;;;;;;9.63;4.70;;;17.80;72.20;;;;;;4861799;29;21020;-73
2022/06/10 05:30:31;;;;;;;9.37;5.53;;;18.00;72.30;;;;;;4858787;29;20494;-73
2022/06/10 05:32:59;;;;;;;7.67;4.50;;;18.10;72.60;;;;;;4861774;29;20495;-74
2022/06/10 05:35:30;;;;;;;8.50;4.40;;;18.30;73.20;;;;;;4874799;29;21049;-73
2022/06/10 05:37:58;;;;;;;16.47;5.40;;;18.70;74.10;;;;;;4881040;29;20860;-74
2022/06/10 05:40:29;;;;;;;13.60;5.20;;;19.40;73.70;;;;;;4880795;29;20475;-73
2022/06/10 05:42:57;;;;;;;8.13;5.33;;;20.50;71.70;;;;;;4874249;29;20898;-73
2022/06/10 05:45:26;;;;;;;9.83;5.40;;;21.60;69.30;;;;;;4870621;29;20483;-74
2022/06/10 05:47:58;;;;;;;6.10;4.07;;;22.80;67.30;;;;;;4874049;29;20559;-73
2022/06/10 05:50:30;;;;;;;6.90;4.07;;;23.80;65.70;;;;;;4875027;29;20477;-73
2022/06/10 05:52:58;;;;;;;8.27;4.67;;;24.70;64.10;;;;;;4873301;29;20919;-73
2022/06/10 05:55:26;;;;;;;8.20;4.03;;;25.50;63.20;;;;;;4874089;29;20527;-73
2022/06/10 05:57:54;;;;;;;7.10;4.63;;;26.30;62.30;;;;;;4872671;29;20992;-73
2022/06/10 06:00:26;;;;;;;9.13;5.10;;;26.90;61.40;;;;;;4872741;29;20490;-73
2022/06/10 06:02:54;;;;;;;8.60;4.30;;;27.60;60.50;;;;;;4875025;29;20492;-73
2022/06/10 06:05:23;;;;;;;6.57;4.13;;;28.20;59.50;;;;;;4878848;29;20485;-73
2022/06/10 06:07:53;;;;;;;7.43;4.90;;;28.50;58.40;;;;;;4874372;29;20621;-73
2022/06/10 06:10:24;;;;;;;8.37;4.67;;;28.40;58.30;;;;;;4856218;29;21000;-74
2022/06/10 06:12:53;;;;;;;7.57;4.73;;;27.90;58.60;;;;;;4873359;29;20461;-74
2022/06/10 06:15:21;;;;;;;7.30;4.27;;;27.30;58.90;;;;;;4870389;29;20482;-74
2022/06/10 06:17:49;;;;;;;6.07;4.03;;;26.70;59.30;;;;;;4880099;29;20476;-73
2022/06/10 06:20:18;;;;;;;27.47;5.23;;;26.20;59.40;;;;;;4880791;29;20487;-73
2022/06/10 06:22:47;;;;;;;7.90;4.13;;;25.60;60.00;;;;;;4858325;29;20479;-73
2022/06/10 06:25:18;;;;;;;8.70;4.77;;;25.10;60.40;;;;;;4875086;29;20476;-73
2022/06/10 06:27:48;;;;;;;7.37;4.07;;;24.60;60.90;;;;;;4877972;29;20492;-72
2022/06/10 06:30:19;;;;;;;7.93;4.40;;;24.10;61.40;;;;;;4873892;29;20475;-73
2022/06/10 06:32:48;;;;;;;7.87;4.50;;;23.60;61.90;;;;;;4873596;29;20462;-73
2022/06/10 06:35:16;;;;;;;6.00;3.93;;;23.10;62.30;;;;;;4879207;29;20481;-73
2022/06/10 06:37:44;;;;;;;8.63;5.40;;;22.70;62.70;;;;;;4873383;29;20974;-73
2022/06/10 06:40:13;;;;;;;7.30;4.20;;;22.30;63.30;;;;;;4873209;29;20990;-74
2022/06/10 06:42:42;;;;;;;9.30;4.47;;;21.90;63.80;;;;;;4880406;29;21359;-73
2022/06/10 06:45:11;;;;;;;9.23;4.80;;;21.50;64.40;;;;;;4872618;29;20483;-73
2022/06/10 06:47:49;;;;;;;11.03;4.53;;;21.30;64.90;;;;;;4882435;29;20576;-74
2022/06/10 06:50:23;;;;;;;8.00;4.73;;;21.00;65.30;;;;;;4874244;29;20491;-74
2022/06/10 06:52:51;;;;;;;7.17;4.40;;;20.80;65.90;;;;;;4871779;29;20753;-73
2022/06/10 06:55:20;;;;;;;7.67;4.10;;;20.70;66.10;;;;;;4875884;29;21352;-73
2022/06/10 06:57:50;;;;;;;10.40;4.50;;;20.50;66.50;;;;;;4879581;29;20568;-75
2022/06/10 07:00:21;;;;;;;10.63;5.07;;;20.40;66.90;;;;;;4856179;29;20468;-74
2022/06/10 07:02:49;;;;;;;10.70;4.50;;;20.20;67.10;;;;;;4880461;29;20462;-73
2022/06/10 07:05:17;;;;;;;7.10;4.43;;;20.20;67.60;;;;;;4875653;29;20485;-74
2022/06/10 07:07:45;;;;;;;6.60;4.00;;;20.10;67.80;;;;;;4875428;29;20636;-75
2022/06/10 07:10:15;;;;;;;6.83;4.63;;;20.00;68.10;;;;;;4867930;29;20480;-74
2022/06/10 07:12:43;;;;;;;8.27;4.20;;;20.00;68.20;;;;;;4856458;29;21129;-74
2022/06/10 07:15:13;;;;;;;8.00;4.70;;;19.90;68.50;;;;;;4879698;29;20456;-73
2022/06/10 07:17:41;;;;;;;8.90;3.80;;;19.90;68.70;;;;;;4883598;29;20488;-73
2022/06/10 07:20:16;;;;;;;9.03;4.30;;;19.80;68.90;;;;;;4891319;29;20460;-73
2022/06/10 07:22:44;;;;;;;8.63;3.67;;;19.80;69.00;;;;;;4881541;29;20468;-73
2022/06/10 07:25:12;;;;;;;7.57;3.80;;;19.80;69.10;;;;;;4886850;29;20459;-74
2022/06/10 07:27:40;;;;;;;7.20;3.70;;;19.80;69.30;;;;;;4877487;29;20955;-72
2022/06/10 07:30:09;;;;;;;10.30;3.30;;;19.80;69.30;;;;;;4876699;29;20449;-73
2022/06/10 07:32:39;;;;;;;8.87;3.33;;;19.80;69.40;;;;;;4874312;29;20995;-73
2022/06/10 07:35:08;;;;;;;7.00;3.23;;;19.80;69.40;;;;;;4887382;29;20459;-74
2022/06/10 07:37:36;;;;;;;6.33;2.97;;;19.90;69.40;;;;;;4884808;29;20463;-73
2022/06/10 07:40:05;;;;;;;6.10;3.20;;;19.90;69.30;;;;;;4879948;29;20491;-73
2022/06/10 07:42:34;;;;;;;6.10;2.90;;;19.90;69.20;;;;;;4880406;29;20472;-74
2022/06/10 07:45:03;;;;;;;5.63;2.90;;;19.90;69.20;;;;;;4879413;29;20482;-74
2022/06/10 07:47:31;;;;;;;4.57;2.40;;;20.00;69.20;;;;;;4873657;29;20494;-73
2022/06/10 07:50:00;;;;;;;8.47;3.00;;;20.00;69.20;;;;;;4878576;29;20472;-73
2022/06/10 07:52:28;;;;;;;4.50;2.50;;;20.00;69.20;;;;;;4876892;29;20476;-74
2022/06/10 07:54:56;;;;;;;5.10;2.93;;;20.00;69.20;;;;;;4878196;29;20478;-73
2022/06/10 07:57:24;;;;;;;6.43;3.63;;;20.10;69.10;;;;;;4881544;29;20966;-74
2022/06/10 07:59:53;;;;;;;7.17;3.00;;;20.10;69.10;;;;;;4883432;29;20478;-74
2022/06/10 08:02:21;;;;;;;6.57;2.83;;;20.20;69.20;;;;;;4874454;29;20501;-74
2022/06/10 08:04:49;;;;;;;8.00;3.20;;;20.20;69.10;;;;;;4878629;29;20459;-73
2022/06/10 08:07:19;;;;;;;7.13;3.30;;;20.20;68.90;;;;;;4858850;29;21016;-74
2022/06/10 08:09:46;;;;;;;7.40;3.47;;;20.20;68.90;;;;;;4878840;29;20617;-73
2022/06/10 08:12:14;;;;;;;7.90;3.00;;;20.20;68.80;;;;;;4882661;29;20468;-73
2022/06/10 08:14:42;;;;;;;5.40;2.80;;;20.30;68.70;;;;;;4879634;29;20461;-73
2022/06/10 08:17:10;;;;;;;5.27;2.87;;;20.30;68.50;;;;;;4879405;29;20978;-73
2022/06/10 08:19:39;;;;;;;6.20;2.50;;;20.20;68.40;;;;;;4881768;29;20530;-72
2022/06/10 08:24:55;;;;;;;4.53;2.30;;;20.20;68.20;;;;;;4878574;29;20460;-73
2022/06/10 08:27:23;;;;;;;4.47;2.20;;;20.20;68.20;;;;;;4875976;29;20522;-73
2022/06/10 08:29:51;;;;;;;4.50;2.60;;;20.20;68.00;;;;;;4875143;29;20476;-73
2022/06/10 08:32:19;;;;;;;5.37;2.50;;;20.20;67.90;;;;;;4883186;29;20489;-73
2022/06/10 08:34:47;;;;;;;5.40;2.67;;;20.20;67.80;;;;;;4889681;29;20477;-73
2022/06/10 08:37:15;;;;;;;8.20;2.10;;;20.20;67.90;;;;;;4882701;29;20471;-72
2022/06/10 08:39:43;;;;;;;3.93;1.90;;;20.20;67.80;;;;;;4880929;29;20495;-73
2022/06/10 08:42:29;;;;;;;6.07;2.50;;;20.20;67.50;;;;;;4878418;29;20461;-73
2022/06/10 08:45:00;;;;;;;5.80;2.73;;;20.20;67.60;;;;;;4878361;29;20462;-73
2022/06/10 08:47:37;;;;;;;4.93;2.10;;;20.20;67.50;;;;;;4875050;29;20497;-74
2022/06/10 08:50:41;;;;;;;5.57;2.23;;;20.20;67.30;;;;;;4878448;29;20526;-74
2022/06/10 08:53:22;;;;;;;4.10;1.83;;;20.20;67.00;;;;;;4876795;29;20451;-73
2022/06/10 08:56:00;;;;;;;4.67;2.47;;;20.20;67.10;;;;;;4883677;29;20503;-74
2022/06/10 08:58:34;;;;;;;4.60;1.97;;;20.20;67.00;;;;;;4878727;29;21019;-73
2022/06/10 09:01:07;;;;;;;5.10;1.97;;;20.20;66.90;;;;;;4876589;29;20533;-73
2022/06/10 09:03:42;;;;;;;8.70;2.10;;;20.20;66.70;;;;;;4875885;29;20472;-73
2022/06/10 09:06:20;;;;;;;5.50;1.93;;;20.20;66.60;;;;;;4877802;29;20495;-72
2022/06/10 09:08:51;;;;;;;4.70;1.53;;;20.20;66.30;;;;;;4881344;29;20502;-73
2022/06/10 09:11:26;;;;;;;4.63;2.10;;;20.20;66.30;;;;;;4877314;29;20463;-73
2022/06/10 09:13:59;;;;;;;5.57;2.20;;;20.20;66.50;;;;;;4873685;29;20480;-73
2022/06/10 09:16:35;;;;;;;5.33;1.90;;;20.20;66.30;;;;;;4873454;29;21011;-73
2022/06/10 09:19:10;;;;;;;5.40;1.77;;;20.30;66.10;;;;;;4881412;29;20988;-74
2022/06/10 09:21:43;;;;;;;4.87;2.00;;;20.40;66.00;;;;;;4879124;29;20459;-73
2022/06/10 09:24:21;;;;;;;4.90;2.17;;;20.40;65.90;;;;;;4874556;29;20522;-73
2022/06/10 09:26:54;;;;;;;5.37;1.57;;;20.50;65.90;;;;;;4877612;29;21004;-72
2022/06/10 09:29:23;;;;;;;6.33;2.00;;;20.50;65.30;;;;;;4879107;29;20497;-72
2022/06/10 09:31:59;;;;;;;5.63;2.30;;;20.50;65.40;;;;;;4883302;29;20479;-73
2022/06/10 09:34:42;;;;;;;6.10;1.83;;;20.50;65.20;;;;;;4883659;29;21093;-73
2022/06/10 09:37:18;;;;;;;6.23;1.97;;;20.50;65.30;;;;;;4879257;29;20829;-73
2022/06/10 09:43:07;;;;;;;4.07;1.83;;;20.50;65.30;;;;;;4848305;29;20463;-74
2022/06/10 09:45:45;;;;;;;6.57;2.37;;;20.50;65.20;;;;;;4874430;29;20486;-73
2022/06/10 09:48:26;;;;;;;4.43;1.63;;;20.60;65.00;;;;;;4880405;29;21002;-74
2022/06/10 09:51:01;;;;;;;5.27;2.00;;;20.60;64.90;;;;;;4857100;29;20480;-74
2022/06/10 09:53:45;;;;;;;4.40;2.30;;;20.60;64.90;;;;;;4875318;29;20505;-73
2022/06/10 09:56:41;;;;;;;5.70;1.80;;;20.70;64.90;;;;;;4871106;29;20477;-73
2022/06/10 09:59:19;;;;;;;6.30;1.90;;;20.70;64.90;;;;;;4880464;29;20574;-73
2022/06/10 10:02:01;;;;;;;6.23;2.30;;;20.70;64.90;;;;;;4876192;29;20533;-74
2022/06/10 10:05:01;;;;;;;5.43;2.10;;;20.80;64.80;;;;;;4870069;29;20784;-73
2022/06/10 10:07:37;;;;;;;4.13;1.57;;;20.80;64.80;;;;;;4872416;29;20557;-73
2022/06/10 10:10:20;;;;;;;7.60;2.60;;;20.80;64.70;;;;;;4872661;29;20577;-73
2022/06/10 10:12:57;;;;;;;4.73;1.80;;;20.90;64.70;;;;;;4873454;29;20490;-74
2022/06/10 10:15:34;;;;;;;4.50;1.70;;;21.00;64.70;;;;;;4874156;29;20460;-73
2022/06/10 10:18:36;;;;;;;4.50;1.90;;;21.10;64.80;;;;;;4874156;29;20505;-72
2022/06/10 10:21:09;;;;;;;5.10;1.87;;;21.30;64.40;;;;;;4870685;29;20476;-73
2022/06/10 10:23:41;;;;;;;4.80;1.60;;;21.40;64.40;;;;;;4870205;29;20469;-71
2022/06/10 10:26:19;;;;;;;4.73;2.10;;;21.50;64.20;;;;;;4865221;29;20467;-72
2022/06/10 10:28:50;;;;;;;6.17;2.43;;;21.60;63.90;;;;;;4871902;29;20483;-71
2022/06/10 10:31:22;;;;;;;4.33;1.83;;;21.70;63.80;;;;;;4872029;29;20473;-72
2022/06/10 10:34:00;;;;;;;5.03;1.60;;;21.70;63.70;;;;;;4883038;29;20550;-73
2022/06/10 10:36:47;;;;;;;5.93;1.90;;;21.70;63.70;;;;;;4873965;29;20491;-70
2022/06/10 10:39:28;;;;;;;5.67;2.27;;;21.80;63.60;;;;;;4859150;29;20493;-71
2022/06/10 10:41:59;;;;;;;5.03;2.20;;;21.80;63.60;;;;;;4867454;29;21064;-70
2022/06/10 10:44:35;;;;;;;6.73;1.80;;;21.90;63.60;;;;;;4867971;29;20483;-72
2022/06/10 10:47:17;;;;;;;5.90;1.77;;;21.90;63.50;;;;;;4873566;29;20478;-72
2022/06/10 10:49:49;;;;;;;4.43;2.00;;;22.00;63.50;;;;;;4852833;29;20506;-72
2022/06/10 10:52:22;;;;;;;8.50;2.33;;;22.00;63.20;;;;;;4868892;29;20488;-72
2022/06/10 10:54:54;;;;;;;5.57;2.20;;;22.00;63.00;;;;;;4878406;29;22514;-72
2022/06/10 10:57:29;;;;;;;5.80;2.10;;;21.90;63.00;;;;;;4875472;29;20476;-72
2022/06/10 11:00:23;;;;;;;8.37;2.20;;;21.90;62.90;;;;;;4883607;29;20483;-73
2022/06/10 11:02:53;;;;;;;6.47;2.03;;;22.00;62.40;;;;;;4875730;29;20487;-73
2022/06/10 11:05:26;;;;;;;5.60;2.03;;;22.00;62.50;;;;;;4873633;29;20481;-73
2022/06/10 11:08:17;;;;;;;6.97;2.10;;;22.10;62.60;;;;;;4878595;29;20978;-73
2022/06/10 11:11:00;;;;;;;6.47;2.60;;;22.10;62.70;;;;;;4861572;29;20520;-72
2022/06/10 11:13:45;;;;;;;5.83;2.47;;;22.20;62.90;;;;;;4877536;29;20459;-72
2022/06/10 11:16:38;;;;;;;6.60;2.40;;;22.30;62.60;;;;;;4873788;29;20833;-72
2022/06/10 11:19:20;;;;;;;5.60;1.97;;;22.40;62.60;;;;;;4872466;29;20488;-72
2022/06/10 11:21:53;;;;;;;4.00;1.93;;;22.40;62.50;;;;;;4874748;29;20458;-72
2022/06/10 11:24:26;;;;;;;5.50;2.50;;;22.30;62.20;;;;;;4883432;29;20482;-73
2022/06/10 11:26:57;;;;;;;9.67;2.77;;;22.40;62.50;;;;;;4876697;29;20473;-73
2022/06/10 11:29:26;;;;;;;7.07;2.23;;;22.40;62.50;;;;;;4880950;29;20488;-72
2022/06/10 11:31:57;;;;;;;6.30;2.20;;;22.40;62.30;;;;;;4882426;29;20492;-72
2022/06/10 11:34:33;;;;;;;4.43;2.03;;;22.40;62.10;;;;;;4881858;29;20559;-73
2022/06/10 11:37:20;;;;;;;6.53;1.87;;;22.30;62.00;;;;;;4878307;29;20828;-73
2022/06/10 11:39:52;;;;;;;7.43;2.13;;;22.30;62.10;;;;;;4878853;29;20574;-73
2022/06/10 11:42:28;;;;;;;6.73;2.17;;;22.30;61.70;;;;;;4880480;29;20889;-73
2022/06/10 11:45:03;;;;;;;5.33;2.23;;;22.30;61.80;;;;;;4877359;29;20476;-71
2022/06/10 11:47:38;;;;;;;4.27;1.80;;;22.30;61.60;;;;;;4881560;29;20474;-73
2022/06/10 11:50:12;;;;;;;4.30;2.00;;;22.30;61.70;;;;;;4880363;29;20493;-74
2022/06/10 11:52:51;;;;;;;8.30;2.03;;;22.30;61.70;;;;;;4882756;29;20526;-74
2022/06/10 11:55:21;;;;;;;4.27;1.93;;;22.30;61.90;;;;;;4877912;29;20472;-74
2022/06/10 12:00:43;;;;;;;4.87;2.10;;;22.30;61.90;;;;;;4857487;29;20478;-73
2022/06/10 12:03:17;;;;;;;4.73;1.90;;;22.20;61.90;;;;;;4881233;29;20464;-72
2022/06/10 12:05:53;;;;;;;5.60;2.00;;;22.30;61.90;;;;;;4884971;29;20457;-71
2022/06/10 12:08:33;;;;;;;5.03;2.00;;;22.30;61.90;;;;;;4873430;29;21411;-70
2022/06/10 12:11:05;;;;;;;4.70;2.17;;;22.40;61.80;;;;;;4875079;29;20496;-71
2022/06/10 12:13:39;;;;;;;4.70;2.03;;;22.40;61.80;;;;;;4863498;29;20504;-71
2022/06/10 12:16:09;;;;;;;5.10;2.17;;;22.50;61.70;;;;;;4874404;29;20490;-71
2022/06/10 12:18:45;;;;;;;5.70;1.83;;;22.50;61.40;;;;;;4875266;29;20481;-71
2022/06/10 12:21:17;;;;;;;5.30;1.90;;;22.50;61.40;;;;;;4879676;29;20948;-71
2022/06/10 12:23:48;;;;;;;4.83;2.37;;;22.50;61.30;;;;;;4878860;29;20475;-70
2022/06/10 12:26:26;;;;;;;6.67;2.33;;;22.50;61.10;;;;;;4883529;29;20454;-71
2022/06/10 12:29:01;;;;;;;5.27;2.03;;;22.50;61.30;;;;;;4881917;29;20489;-70
2022/06/10 12:31:39;;;;;;;4.20;2.17;;;22.60;61.20;;;;;;4867396;29;20574;-71
2022/06/10 12:34:17;;;;;;;5.43;2.33;;;22.60;61.30;;;;;;4865963;29;20491;-69
2022/06/10 12:36:56;;;;;;;6.10;1.93;;;22.70;61.30;;;;;;4869799;29;20453;-70
2022/06/10 12:39:29;;;;;;;5.47;2.07;;;22.80;61.20;;;;;;4868788;29;20486;-71
2022/06/10 12:42:01;;;;;;;4.00;1.97;;;22.90;61.20;;;;;;4869299;29;20470;-70
2022/06/10 12:44:34;;;;;;;5.37;2.07;;;23.00;61.50;;;;;;4871024;29;20465;-70
2022/06/10 12:47:07;;;;;;;5.17;1.70;;;23.10;61.30;;;;;;4870733;29;20482;-70
2022/06/10 12:49:40;;;;;;;4.50;1.83;;;23.20;61.20;;;;;;4870923;29;20498;-70
2022/06/10 12:52:30;;;;;;;5.50;2.30;;;23.20;61.20;;;;;;4871854;29;21170;-70
2022/06/10 12:55:03;;;;;;;5.23;2.10;;;23.20;61.10;;;;;;4872152;29;20468;-70
2022/06/10 12:57:38;;;;;;;9.70;2.30;;;23.20;61.10;;;;;;4862728;29;20920;-71
2022/06/10 13:00:43;;;;;;;5.77;3.20;;;23.20;61.00;;;;;;4870495;29;20891;-71
2022/06/10 13:03:30;;;;;;;6.13;2.70;;;23.40;60.90;;;;;;4868309;29;20478;-70
2022/06/10 13:06:02;;;;;;;5.33;2.53;;;23.40;60.60;;;;;;4881256;29;20474;-71
2022/06/10 13:08:49;;;;;;;5.17;2.20;;;23.50;60.50;;;;;;4879454;29;20837;-71
2022/06/10 13:11:41;;;;;;;5.33;1.97;;;23.60;60.30;;;;;;4871234;29;20506;-71
2022/06/10 13:14:22;;;;;;;7.37;2.60;;;23.60;59.50;;;;;;4858315;29;20996;-71
2022/06/10 13:17:14;;;;;;;6.20;2.00;;;23.50;59.20;;;;;;4867317;29;20474;-71
2022/06/10 13:20:02;;;;;;;6.23;2.20;;;23.50;58.70;;;;;;4873650;29;20483;-71
2022/06/10 13:22:36;;;;;;;6.33;1.80;;;23.50;59.10;;;;;;4873552;29;20492;-71
2022/06/10 13:25:27;;;;;;;5.43;1.67;;;23.60;59.30;;;;;;4870610;29;20517;-71
2022/06/10 13:27:56;;;;;;;4.67;1.70;;;23.60;59.20;;;;;;4874212;29;20558;-71
2022/06/10 13:30:28;;;;;;;7.30;2.23;;;23.70;59.20;;;;;;4870161;29;20506;-71